sensor_id;sensor_type;location;lat;lon;timestamp;pressure;altitude;pressure_sealevel;temperature;humidity
79127;BME280;68528;48.814;8.904;2023-04-19T01:35:48;96893.16;;;6.65;85.27
79127;BME280;68528;48.814;8.904;2023-04-19T01:38:38;96887.72;;;6.65;85.48
79127;BME280;68528;48.814;8.904;2023-04-19T01:41:14;96892.34;;;6.64;85.31
79127;BME280;68528;48.814;8.904;2023-04-19T01:44:01;96898.59;;;6.65;85.48
79127;BME280;68528;48.814;8.904;2023-04-19T01:46:35;96886.09;;;6.64;85.38
79127;BME280;68528;48.814;8.904;2023-04-19T04:32:01;96834.50;;;5.83;88.57
79127;BME280;68528;48.814;8.904;2023-04-19T07:26:53;96844.75;;;7.82;78.01
79127;BME280;68528;48.814;8.904;2023-04-19T07:29:20;96838.00;;;8.00;78.04
79127;BME280;68528;48.814;8.904;2023-04-19T07:31:45;96832.25;;;8.26;77.98
79127;BME280;68528;48.814;8.904;2023-04-19T07:34:11;96834.47;;;8.44;76.67
79127;BME280;68528;48.814;8.904;2023-04-19T07:36:36;96833.69;;;8.80;75.90
79127;BME280;68528;48.814;8.904;2023-04-19T07:39:02;96832.28;;;9.22;75.11
79127;BME280;68528;48.814;8.904;2023-04-19T07:41:30;96832.69;;;9.36;71.88
79127;BME280;68528;48.814;8.904;2023-04-19T07:43:56;96828.38;;;9.23;72.76
79127;BME280;68528;48.814;8.904;2023-04-19T07:46:21;96831.16;;;9.11;72.75
79127;BME280;68528;48.814;8.904;2023-04-19T07:48:47;96830.44;;;9.26;72.27
79127;BME280;68528;48.814;8.904;2023-04-19T07:51:14;96835.94;;;8.66;72.55
79127;BME280;68528;48.814;8.904;2023-04-19T07:53:41;96824.72;;;9.31;72.21
79127;BME280;68528;48.814;8.904;2023-04-19T07:56:08;96833.31;;;10.13;68.44
79127;BME280;68528;48.814;8.904;2023-04-19T07:58:36;96817.34;;;10.15;68.64
79127;BME280;68528;48.814;8.904;2023-04-19T08:01:04;96815.28;;;11.05;66.98
79127;BME280;68528;48.814;8.904;2023-04-19T08:03:35;96817.38;;;10.46;67.79
79127;BME280;68528;48.814;8.904;2023-04-19T08:06:02;96817.97;;;10.24;67.65
79127;BME280;68528;48.814;8.904;2023-04-19T08:08:30;96810.66;;;10.28;67.43
79127;BME280;68528;48.814;8.904;2023-04-19T08:11:15;96806.66;;;10.41;67.13
79127;BME280;68528;48.814;8.904;2023-04-19T08:13:40;96810.94;;;10.39;66.29
79127;BME280;68528;48.814;8.904;2023-04-19T08:16:06;96811.28;;;9.94;66.70
79127;BME280;68528;48.814;8.904;2023-04-19T08:18:32;96801.19;;;10.72;65.54
79127;BME280;68528;48.814;8.904;2023-04-19T08:20:58;96803.47;;;11.21;62.22
79127;BME280;68528;48.814;8.904;2023-04-19T08:23:23;96804.13;;;11.68;61.49
79127;BME280;68528;48.814;8.904;2023-04-19T08:25:49;96796.38;;;12.34;59.29
79127;BME280;68528;48.814;8.904;2023-04-19T08:28:15;96801.53;;;12.85;58.81
79127;BME280;68528;48.814;8.904;2023-04-19T08:30:41;96805.31;;;12.31;59.26
79127;BME280;68528;48.814;8.904;2023-04-19T08:33:08;96801.94;;;12.87;58.14
79127;BME280;68528;48.814;8.904;2023-04-19T08:38:53;96801.34;;;11.30;60.80
79127;BME280;68528;48.814;8.904;2023-04-19T08:41:19;96806.63;;;11.38;62.10
79127;BME280;68528;48.814;8.904;2023-04-19T08:43:46;96815.59;;;11.20;61.18
79127;BME280;68528;48.814;8.904;2023-04-19T08:46:17;96815.41;;;10.15;62.52
79127;BME280;68528;48.814;8.904;2023-04-19T08:48:46;96808.25;;;10.11;63.91
79127;BME280;68528;48.814;8.904;2023-04-19T08:51:16;96796.78;;;10.21;64.03
79127;BME280;68528;48.814;8.904;2023-04-19T08:53:46;96797.59;;;10.53;64.03
79127;BME280;68528;48.814;8.904;2023-04-19T08:56:15;96788.03;;;11.66;60.18
79127;BME280;68528;48.814;8.904;2023-04-19T08:59:06;96797.75;;;10.28;63.50
79127;BME280;68528;48.814;8.904;2023-04-19T09:01:34;96796.53;;;10.57;64.28
79127;BME280;68528;48.814;8.904;2023-04-19T09:04:02;96799.81;;;10.47;65.04
79127;BME280;68528;48.814;8.904;2023-04-19T09:06:34;96796.25;;;10.47;64.26
79127;BME280;68528;48.814;8.904;2023-04-19T09:09:17;96795.03;;;9.85;66.49
79127;BME280;68528;48.814;8.904;2023-04-19T09:11:45;96785.75;;;9.90;67.11
79127;BME280;68528;48.814;8.904;2023-04-19T09:14:13;96789.09;;;10.26;67.08
79127;BME280;68528;48.814;8.904;2023-04-19T09:16:40;96784.94;;;10.48;66.02
79127;BME280;68528;48.814;8.904;2023-04-19T09:19:09;96792.75;;;10.31;66.28
79127;BME280;68528;48.814;8.904;2023-04-19T09:21:38;96793.84;;;10.14;67.78
79127;BME280;68528;48.814;8.904;2023-04-19T09:24:04;96782.63;;;9.76;68.03
79127;BME280;68528;48.814;8.904;2023-04-19T09:26:30;96788.22;;;9.95;69.10
79127;BME280;68528;48.814;8.904;2023-04-19T09:29:15;96782.81;;;10.42;65.65
79127;BME280;68528;48.814;8.904;2023-04-19T09:31:55;96785.75;;;10.64;66.28
79127;BME280;68528;48.814;8.904;2023-04-19T09:34:21;96781.84;;;10.50;67.70
79127;BME280;68528;48.814;8.904;2023-04-19T09:36:48;96780.56;;;10.28;66.83
79127;BME280;68528;48.814;8.904;2023-04-19T09:39:26;96775.75;;;10.25;65.83
79127;BME280;68528;48.814;8.904;2023-04-19T09:41:53;96765.34;;;10.15;65.49
79127;BME280;68528;48.814;8.904;2023-04-19T09:44:19;96770.47;;;10.32;65.64
79127;BME280;68528;48.814;8.904;2023-04-19T09:46:46;96769.94;;;10.92;64.41
79127;BME280;68528;48.814;8.904;2023-04-19T09:51:46;96766.16;;;10.81;65.33
79127;BME280;68528;48.814;8.904;2023-04-19T09:54:41;96759.19;;;11.19;64.89
79127;BME280;68528;48.814;8.904;2023-04-19T09:57:07;96752.38;;;10.93;61.75
79127;BME280;68528;48.814;8.904;2023-04-19T09:59:35;96761.28;;;10.40;63.76
79127;BME280;68528;48.814;8.904;2023-04-19T10:02:01;96749.25;;;10.60;64.29
79127;BME280;68528;48.814;8.904;2023-04-19T10:04:29;96752.38;;;10.93;63.83
79127;BME280;68528;48.814;8.904;2023-04-19T10:07:02;96749.63;;;10.93;63.67
79127;BME280;68528;48.814;8.904;2023-04-19T10:09:38;96746.91;;;10.93;62.47
79127;BME280;68528;48.814;8.904;2023-04-19T10:12:30;96749.41;;;10.83;62.78
79127;BME280;68528;48.814;8.904;2023-04-19T10:14:56;96753.56;;;10.77;63.73
79127;BME280;68528;48.814;8.904;2023-04-19T10:17:23;96747.94;;;10.54;65.10
79127;BME280;68528;48.814;8.904;2023-04-19T10:19:53;96747.78;;;10.47;64.94
79127;BME280;68528;48.814;8.904;2023-04-19T10:22:19;96735.13;;;10.58;64.83
79127;BME280;68528;48.814;8.904;2023-04-19T10:25:10;96740.56;;;10.74;63.98
79127;BME280;68528;48.814;8.904;2023-04-19T10:27:42;96736.03;;;10.81;63.64
79127;BME280;68528;48.814;8.904;2023-04-19T10:32:46;96737.75;;;11.05;63.87
79127;BME280;68528;48.814;8.904;2023-04-19T10:35:21;96733.59;;;10.76;64.18
79127;BME280;68528;48.814;8.904;2023-04-19T10:43:43;96735.25;;;10.15;66.13
79127;BME280;68528;48.814;8.904;2023-04-19T10:46:41;96734.22;;;10.07;66.31
79127;BME280;68528;48.814;8.904;2023-04-19T10:49:10;96720.69;;;10.11;67.00
79127;BME280;68528;48.814;8.904;2023-04-19T10:51:38;96722.44;;;10.19;66.42
79127;BME280;68528;48.814;8.904;2023-04-19T10:57:03;96716.25;;;10.06;66.60
79127;BME280;68528;48.814;8.904;2023-04-19T11:02:35;96703.53;;;10.14;67.00
79127;BME280;68528;48.814;8.904;2023-04-19T11:05:06;96702.63;;;9.79;67.25
79127;BME280;68528;48.814;8.904;2023-04-19T11:07:36;96697.91;;;9.48;69.05
79127;BME280;68528;48.814;8.904;2023-04-19T11:10:02;96693.97;;;9.77;68.24
79127;BME280;68528;48.814;8.904;2023-04-19T11:12:27;96693.69;;;9.66;68.26
79127;BME280;68528;48.814;8.904;2023-04-19T11:14:55;96695.59;;;9.78;68.67
79127;BME280;68528;48.814;8.904;2023-04-19T11:17:26;96696.34;;;9.78;68.11
79127;BME280;68528;48.814;8.904;2023-04-19T11:20:00;96697.41;;;9.58;68.41
79127;BME280;68528;48.814;8.904;2023-04-19T11:22:37;96689.91;;;9.71;69.47
79127;BME280;68528;48.814;8.904;2023-04-19T11:25:14;96687.28;;;9.59;69.63
79127;BME280;68528;48.814;8.904;2023-04-19T11:28:02;96694.75;;;9.46;71.44
79127;BME280;68528;48.814;8.904;2023-04-19T11:30:28;96681.22;;;9.37;72.07
79127;BME280;68528;48.814;8.904;2023-04-19T11:32:57;96686.50;;;9.30;72.41
79127;BME280;68528;48.814;8.904;2023-04-19T11:35:27;96682.44;;;9.24;72.87
79127;BME280;68528;48.814;8.904;2023-04-19T11:37:54;96679.28;;;9.10;73.37
79127;BME280;68528;48.814;8.904;2023-04-19T11:40:21;96683.41;;;9.04;74.33
79127;BME280;68528;48.814;8.904;2023-04-19T11:42:56;96686.19;;;8.92;74.58
79127;BME280;68528;48.814;8.904;2023-04-19T11:45:30;96680.00;;;9.07;74.35
79127;BME280;68528;48.814;8.904;2023-04-19T11:47:59;96678.88;;;8.96;74.69
79127;BME280;68528;48.814;8.904;2023-04-19T11:50:45;96676.88;;;8.93;74.34
79127;BME280;68528;48.814;8.904;2023-04-19T11:53:15;96672.53;;;8.92;74.44
79127;BME280;68528;48.814;8.904;2023-04-19T11:55:49;96671.13;;;8.98;74.74
79127;BME280;68528;48.814;8.904;2023-04-19T11:58:45;96666.72;;;8.94;75.04
79127;BME280;68528;48.814;8.904;2023-04-19T12:01:21;96673.03;;;8.82;75.94
79127;BME280;68528;48.814;8.904;2023-04-19T12:03:51;96670.34;;;8.70;76.81
79127;BME280;68528;48.814;8.904;2023-04-19T12:06:27;96666.00;;;8.69;76.81
79127;BME280;68528;48.814;8.904;2023-04-19T12:08:55;96671.59;;;8.60;77.69
79127;BME280;68528;48.814;8.904;2023-04-19T12:11:22;96675.09;;;8.73;78.05
79127;BME280;68528;48.814;8.904;2023-04-19T12:14:13;96668.72;;;8.69;77.61
79127;BME280;68528;48.814;8.904;2023-04-19T12:16:45;96670.03;;;8.59;79.53
79127;BME280;68528;48.814;8.904;2023-04-19T12:19:15;96672.50;;;8.64;80.39
79127;BME280;68528;48.814;8.904;2023-04-19T12:21:42;96673.09;;;8.46;80.61
79127;BME280;68528;48.814;8.904;2023-04-19T12:24:07;96664.94;;;8.34;82.71
79127;BME280;68528;48.814;8.904;2023-04-19T12:26:55;96663.53;;;8.16;84.65
79127;BME280;68528;48.814;8.904;2023-04-19T12:29:21;96649.47;;;8.14;84.43
79127;BME280;68528;48.814;8.904;2023-04-19T12:31:46;96655.47;;;8.07;84.84
79127;BME280;68528;48.814;8.904;2023-04-19T12:34:12;96665.38;;;8.00;86.10
79127;BME280;68528;48.814;8.904;2023-04-19T12:36:37;96645.59;;;7.90;87.01
79127;BME280;68528;48.814;8.904;2023-04-19T12:39:03;96660.47;;;8.05;86.07
79127;BME280;68528;48.814;8.904;2023-04-19T12:41:30;96657.66;;;8.02;85.73
79127;BME280;68528;48.814;8.904;2023-04-19T12:43:55;96662.41;;;7.92;86.60
79127;BME280;68528;48.814;8.904;2023-04-19T12:46:22;96654.38;;;7.96;86.78
79127;BME280;68528;48.814;8.904;2023-04-19T12:48:47;96649.44;;;7.77;85.73
79127;BME280;68528;48.814;8.904;2023-04-19T12:51:14;96659.13;;;7.75;88.02
79127;BME280;68528;48.814;8.904;2023-04-19T12:53:40;96659.22;;;7.66;88.49
79127;BME280;68528;48.814;8.904;2023-04-19T12:56:08;96657.03;;;7.48;86.80
79127;BME280;68528;48.814;8.904;2023-04-19T12:58:33;96650.34;;;7.45;87.90
79127;BME280;68528;48.814;8.904;2023-04-19T13:00:59;96653.03;;;7.33;88.46
79127;BME280;68528;48.814;8.904;2023-04-19T13:03:24;96655.53;;;7.38;88.05
79127;BME280;68528;48.814;8.904;2023-04-19T13:05:50;96653.66;;;7.18;88.69
79127;BME280;68528;48.814;8.904;2023-04-19T13:08:18;96657.53;;;7.17;87.89
79127;BME280;68528;48.814;8.904;2023-04-19T13:10:46;96654.53;;;7.10;88.05
79127;BME280;68528;48.814;8.904;2023-04-19T13:13:15;96644.34;;;7.07;89.03
79127;BME280;68528;48.814;8.904;2023-04-19T13:16:04;96643.00;;;7.13;88.16
79127;BME280;68528;48.814;8.904;2023-04-19T13:18:32;96630.03;;;7.10;88.01
79127;BME280;68528;48.814;8.904;2023-04-19T13:21:01;96634.59;;;7.18;88.62
79127;BME280;68528;48.814;8.904;2023-04-19T13:23:26;96628.22;;;7.14;87.55
79127;BME280;68528;48.814;8.904;2023-04-19T13:25:52;96631.84;;;7.06;87.16
79127;BME280;68528;48.814;8.904;2023-04-19T13:28:19;96634.72;;;7.09;86.94
79127;BME280;68528;48.814;8.904;2023-04-19T13:30:46;96622.56;;;7.07;88.06
79127;BME280;68528;48.814;8.904;2023-04-19T13:33:15;96624.19;;;7.20;87.05
79127;BME280;68528;48.814;8.904;2023-04-19T13:35:42;96620.09;;;7.26;87.04
79127;BME280;68528;48.814;8.904;2023-04-19T13:38:09;96621.13;;;7.34;88.04
79127;BME280;68528;48.814;8.904;2023-04-19T13:40:36;96621.13;;;7.34;86.69
79127;BME280;68528;48.814;8.904;2023-04-19T13:43:01;96611.28;;;7.41;86.40
79127;BME280;68528;48.814;8.904;2023-04-19T13:45:26;96612.19;;;7.45;86.77
79127;BME280;68528;48.814;8.904;2023-04-19T13:47:52;96614.03;;;7.53;86.85
79127;BME280;68528;48.814;8.904;2023-04-19T13:50:26;96607.88;;;7.56;86.09
79127;BME280;68528;48.814;8.904;2023-04-19T13:52:51;96604.25;;;7.52;85.49
79127;BME280;68528;48.814;8.904;2023-04-19T13:55:17;96591.97;;;7.46;84.60
79127;BME280;68528;48.814;8.904;2023-04-19T13:57:42;96593.91;;;7.46;83.40
79127;BME280;68528;48.814;8.904;2023-04-19T14:00:08;96587.22;;;7.55;84.96
79127;BME280;68528;48.814;8.904;2023-04-19T14:02:34;96583.59;;;7.63;84.79
79127;BME280;68528;48.814;8.904;2023-04-19T14:04:59;96587.47;;;7.62;83.30
79127;BME280;68528;48.814;8.904;2023-04-19T14:07:25;96574.72;;;7.54;83.21
79127;BME280;68528;48.814;8.904;2023-04-19T14:09:53;96585.41;;;7.59;81.93
79127;BME280;68528;48.814;8.904;2023-04-19T14:12:29;96579.72;;;7.52;84.22
79127;BME280;68528;48.814;8.904;2023-04-19T14:14:58;96580.63;;;7.56;82.84
79127;BME280;68528;48.814;8.904;2023-04-19T14:17:25;96570.53;;;7.57;83.98
79127;BME280;68528;48.814;8.904;2023-04-19T14:19:50;96573.59;;;7.67;82.91
79127;BME280;68528;48.814;8.904;2023-04-19T14:22:16;96572.66;;;7.75;83.64
79127;BME280;68528;48.814;8.904;2023-04-19T14:24:41;96572.09;;;7.82;83.16
79127;BME280;68528;48.814;8.904;2023-04-19T14:27:07;96570.28;;;7.74;82.50
79127;BME280;68528;48.814;8.904;2023-04-19T14:29:33;96567.09;;;7.84;82.16
79127;BME280;68528;48.814;8.904;2023-04-19T14:31:58;96577.09;;;7.92;82.85
79127;BME280;68528;48.814;8.904;2023-04-19T14:34:24;96561.31;;;7.85;82.23
79127;BME280;68528;48.814;8.904;2023-04-19T14:36:51;96563.91;;;7.94;81.76
79127;BME280;68528;48.814;8.904;2023-04-19T14:39:16;96558.53;;;8.10;82.47
79127;BME280;68528;48.814;8.904;2023-04-19T14:41:41;96547.59;;;8.22;81.84
79127;BME280;68528;48.814;8.904;2023-04-19T14:44:11;96547.94;;;8.32;79.81
79127;BME280;68528;48.814;8.904;2023-04-19T14:46:37;96538.28;;;8.23;80.29
79127;BME280;68528;48.814;8.904;2023-04-19T14:49:03;96534.66;;;8.31;81.61
79127;BME280;68528;48.814;8.904;2023-04-19T14:51:31;96532.03;;;8.22;80.59
79127;BME280;68528;48.814;8.904;2023-04-19T14:53:57;96527.03;;;8.24;79.91
79127;BME280;68528;48.814;8.904;2023-04-19T14:56:23;96527.16;;;8.16;80.65
79127;BME280;68528;48.814;8.904;2023-04-19T14:58:48;96514.22;;;8.13;81.79
79127;BME280;68528;48.814;8.904;2023-04-19T15:01:14;96517.00;;;7.88;81.45
79127;BME280;68528;48.814;8.904;2023-04-19T15:03:40;96516.97;;;8.01;81.96
79127;BME280;68528;48.814;8.904;2023-04-19T15:06:06;96521.97;;;8.11;81.49
79127;BME280;68528;48.814;8.904;2023-04-19T15:08:32;96512.63;;;8.12;79.73
79127;BME280;68528;48.814;8.904;2023-04-19T15:10:57;96515.13;;;8.17;80.48
79127;BME280;68528;48.814;8.904;2023-04-19T15:13:23;96521.38;;;8.29;79.72
79127;BME280;68528;48.814;8.904;2023-04-19T15:15:54;96514.47;;;8.08;81.03
79127;BME280;68528;48.814;8.904;2023-04-19T15:18:20;96518.44;;;8.10;79.86
79127;BME280;68528;48.814;8.904;2023-04-19T15:20:45;96513.78;;;8.11;80.53
79127;BME280;68528;48.814;8.904;2023-04-19T15:23:14;96515.91;;;8.17;80.83
79127;BME280;68528;48.814;8.904;2023-04-19T15:25:40;96514.97;;;8.37;79.63
79127;BME280;68528;48.814;8.904;2023-04-19T15:28:05;96513.41;;;8.52;79.57
79127;BME280;68528;48.814;8.904;2023-04-19T15:30:30;96515.16;;;8.72;79.34
79127;BME280;68528;48.814;8.904;2023-04-19T15:32:56;96508.03;;;8.83;78.35
79127;BME280;68528;48.814;8.904;2023-04-19T15:35:37;96514.88;;;8.77;77.00
79127;BME280;68528;48.814;8.904;2023-04-19T15:38:02;96506.97;;;8.72;78.03
79127;BME280;68528;48.814;8.904;2023-04-19T15:40:29;96509.06;;;8.79;77.32
79127;BME280;68528;48.814;8.904;2023-04-19T15:42:57;96505.44;;;8.75;75.06
79127;BME280;68528;48.814;8.904;2023-04-19T15:45:23;96507.13;;;8.79;77.10
79127;BME280;68528;48.814;8.904;2023-04-19T15:48:09;96509.09;;;8.94;75.79
79127;BME280;68528;48.814;8.904;2023-04-19T15:50:35;96522.31;;;8.92;74.16
79127;BME280;68528;48.814;8.904;2023-04-19T15:53:02;96519.28;;;9.25;75.67
79127;BME280;68528;48.814;8.904;2023-04-19T15:55:29;96512.28;;;9.59;74.01
79127;BME280;68528;48.814;8.904;2023-04-19T15:57:55;96504.97;;;9.63;74.17
79127;BME280;68528;48.814;8.904;2023-04-19T16:00:28;96497.53;;;9.63;73.96
79127;BME280;68528;48.814;8.904;2023-04-19T16:07:05;96499.56;;;9.50;71.98
79127;BME280;68528;48.814;8.904;2023-04-19T16:16:06;96488.81;;;9.58;70.39
79127;BME280;68528;48.814;8.904;2023-04-19T16:18:58;96487.75;;;9.62;71.58
79127;BME280;68528;48.814;8.904;2023-04-19T16:21:46;96487.34;;;9.44;70.78
79127;BME280;68528;48.814;8.904;2023-04-19T16:24:12;96488.31;;;9.36;73.04
79127;BME280;68528;48.814;8.904;2023-04-19T16:26:44;96489.00;;;9.33;69.82
79127;BME280;68528;48.814;8.904;2023-04-19T16:29:09;96495.53;;;9.13;69.76
79127;BME280;68528;48.814;8.904;2023-04-19T16:31:36;96504.53;;;8.98;72.66
79127;BME280;68528;48.814;8.904;2023-04-19T16:34:39;96483.72;;;8.94;73.06
79127;BME280;68528;48.814;8.904;2023-04-19T16:37:09;96488.66;;;8.88;73.28
79127;BME280;68528;48.814;8.904;2023-04-19T16:39:34;96494.44;;;8.71;72.17
79127;BME280;68528;48.814;8.904;2023-04-19T16:42:00;96487.22;;;8.63;73.50
79127;BME280;68528;48.814;8.904;2023-04-19T16:44:26;96488.34;;;8.62;72.73
79127;BME280;68528;48.814;8.904;2023-04-19T16:46:54;96486.06;;;8.64;75.02
79127;BME280;68528;48.814;8.904;2023-04-19T16:53:09;96500.41;;;8.61;72.01
79127;BME280;68528;48.814;8.904;2023-04-19T16:55:37;96481.47;;;8.52;73.18
79127;BME280;68528;48.814;8.904;2023-04-19T16:58:03;96485.25;;;8.48;72.94
79127;BME280;68528;48.814;8.904;2023-04-19T17:00:28;96480.47;;;8.45;71.65
79127;BME280;68528;48.814;8.904;2023-04-19T17:02:54;96488.41;;;8.50;72.05
79127;BME280;68528;48.814;8.904;2023-04-19T17:05:20;96491.97;;;8.66;73.19
79127;BME280;68528;48.814;8.904;2023-04-19T17:07:45;96491.28;;;8.69;71.28
79127;BME280;68528;48.814;8.904;2023-04-19T17:13:31;96486.63;;;8.69;62.40
79127;BME280;68528;48.814;8.904;2023-04-19T17:16:02;96483.59;;;8.59;55.83
79127;BME280;68528;48.814;8.904;2023-04-19T17:18:28;96483.41;;;8.52;54.08
79127;BME280;68528;48.814;8.904;2023-04-19T17:20:53;96481.63;;;8.44;52.06
79127;BME280;68528;48.814;8.904;2023-04-19T17:23:19;96480.16;;;8.34;52.62
79127;BME280;68528;48.814;8.904;2023-04-19T17:29:07;96480.78;;;8.16;50.11
79127;BME280;68528;48.814;8.904;2023-04-19T17:34:47;96479.34;;;8.06;48.25
79127;BME280;68528;48.814;8.904;2023-04-19T17:40:40;96497.44;;;7.99;49.60
79127;BME280;68528;48.814;8.904;2023-04-19T17:43:10;96492.69;;;7.96;47.89
79127;BME280;68528;48.814;8.904;2023-04-19T17:45:41;96490.63;;;7.92;46.91
79127;BME280;68528;48.814;8.904;2023-04-19T17:48:25;96493.47;;;7.96;48.03
79127;BME280;68528;48.814;8.904;2023-04-19T17:50:51;96495.09;;;7.85;48.82
79127;BME280;68528;48.814;8.904;2023-04-19T17:53:16;96489.06;;;7.91;46.64
79127;BME280;68528;48.814;8.904;2023-04-19T17:55:42;96491.56;;;7.84;48.98
79127;BME280;68528;48.814;8.904;2023-04-19T17:58:07;96492.69;;;7.83;48.85
79127;BME280;68528;48.814;8.904;2023-04-19T18:00:33;96483.88;;;7.74;50.07
79127;BME280;68528;48.814;8.904;2023-04-19T18:06:22;96496.81;;;7.65;49.82
79127;BME280;68528;48.814;8.904;2023-04-19T18:08:48;96489.78;;;7.64;49.57
79127;BME280;68528;48.814;8.904;2023-04-19T18:11:15;96498.88;;;7.56;49.84
79127;BME280;68528;48.814;8.904;2023-04-19T18:13:42;96492.66;;;7.56;49.89
79127;BME280;68528;48.814;8.904;2023-04-19T18:16:07;96487.97;;;7.56;50.19
79127;BME280;68528;48.814;8.904;2023-04-19T18:18:35;96500.69;;;7.52;50.83
79127;BME280;68528;48.814;8.904;2023-04-19T18:21:36;96491.84;;;7.55;50.90
79127;BME280;68528;48.814;8.904;2023-04-19T18:24:31;96502.41;;;7.45;52.05
79127;BME280;68528;48.814;8.904;2023-04-19T18:27:40;96508.66;;;7.45;51.42
79127;BME280;68528;48.814;8.904;2023-04-19T18:30:06;96509.31;;;7.42;51.94
79127;BME280;68528;48.814;8.904;2023-04-19T18:32:32;96505.25;;;7.36;51.61
79127;BME280;68528;48.814;8.904;2023-04-19T18:34:58;96499.69;;;7.33;51.24
79127;BME280;68528;48.814;8.904;2023-04-19T18:37:23;96506.03;;;7.25;52.17
79127;BME280;68528;48.814;8.904;2023-04-19T18:46:17;96504.22;;;7.04;51.44
79127;BME280;68528;48.814;8.904;2023-04-19T18:48:46;96522.91;;;7.06;51.17
79127;BME280;68528;48.814;8.904;2023-04-19T18:51:15;96516.31;;;6.95;52.24
79127;BME280;68528;48.814;8.904;2023-04-19T18:53:41;96520.16;;;6.82;53.00
79127;BME280;68528;48.814;8.904;2023-04-19T18:56:07;96513.31;;;6.76;52.89
79127;BME280;68528;48.814;8.904;2023-04-19T18:58:54;96528.88;;;6.75;54.19
79127;BME280;68528;48.814;8.904;2023-04-19T19:07:59;96531.34;;;6.36;54.87
79127;BME280;68528;48.814;8.904;2023-04-19T19:10:25;96536.19;;;6.30;54.52
79127;BME280;68528;48.814;8.904;2023-04-19T19:12:52;96528.28;;;6.37;54.39
79127;BME280;68528;48.814;8.904;2023-04-19T19:15:18;96530.03;;;6.21;54.53
79127;BME280;68528;48.814;8.904;2023-04-19T19:21:31;96549.81;;;6.09;55.06
79127;BME280;68528;48.814;8.904;2023-04-19T19:23:56;96542.63;;;6.05;54.18
79127;BME280;68528;48.814;8.904;2023-04-19T19:26:23;96552.47;;;5.97;54.77
79127;BME280;68528;48.814;8.904;2023-04-19T19:28:49;96551.84;;;5.92;55.36
79127;BME280;68528;48.814;8.904;2023-04-19T19:31:14;96546.44;;;5.83;54.65
79127;BME280;68528;48.814;8.904;2023-04-19T19:33:40;96547.41;;;5.79;55.50
79127;BME280;68528;48.814;8.904;2023-04-19T19:40:09;96555.44;;;5.75;54.82
79127;BME280;68528;48.814;8.904;2023-04-19T19:43:14;96554.91;;;5.61;55.16
79127;BME280;68528;48.814;8.904;2023-04-19T19:45:40;96551.03;;;5.62;55.03
79127;BME280;68528;48.814;8.904;2023-04-19T19:48:06;96556.84;;;5.52;56.27
79127;BME280;68528;48.814;8.904;2023-04-19T19:50:31;96544.00;;;5.40;56.05
79127;BME280;68528;48.814;8.904;2023-04-19T19:52:57;96553.75;;;5.33;56.74
79127;BME280;68528;48.814;8.904;2023-04-19T19:55:58;96544.06;;;5.23;57.29
79127;BME280;68528;48.814;8.904;2023-04-19T19:58:51;96554.59;;;5.25;57.76
79127;BME280;68528;48.814;8.904;2023-04-19T20:04:41;96550.84;;;5.09;57.13
79127;BME280;68528;48.814;8.904;2023-04-19T20:07:07;96553.13;;;4.98;58.64
79127;BME280;68528;48.814;8.904;2023-04-19T20:09:33;96552.34;;;4.89;59.64
79127;BME280;68528;48.814;8.904;2023-04-19T20:12:22;96561.28;;;4.90;58.56
79127;BME280;68528;48.814;8.904;2023-04-19T20:15:13;96552.34;;;4.81;59.36
79127;BME280;68528;48.814;8.904;2023-04-19T20:17:47;96548.69;;;4.76;59.24
79127;BME280;68528;48.814;8.904;2023-04-19T20:20:13;96551.56;;;4.80;59.62
79127;BME280;68528;48.814;8.904;2023-04-19T20:22:39;96552.50;;;4.75;59.77
79127;BME280;68528;48.814;8.904;2023-04-19T20:25:04;96548.84;;;4.71;60.24
79127;BME280;68528;48.814;8.904;2023-04-19T20:27:31;96551.91;;;4.70;59.80
79127;BME280;68528;48.814;8.904;2023-04-19T20:30:25;96558.59;;;4.72;59.52
79127;BME280;68528;48.814;8.904;2023-04-19T20:33:32;96545.88;;;4.56;60.46
79127;BME280;68528;48.814;8.904;2023-04-19T20:36:23;96543.47;;;4.54;59.96
79127;BME280;68528;48.814;8.904;2023-04-19T20:38:49;96554.03;;;4.47;60.63
79127;BME280;68528;48.814;8.904;2023-04-19T20:41:16;96551.16;;;4.35;60.93
79127;BME280;68528;48.814;8.904;2023-04-19T20:43:41;96556.75;;;4.39;60.59
79127;BME280;68528;48.814;8.904;2023-04-19T20:46:06;96542.53;;;4.33;60.55
79127;BME280;68528;48.814;8.904;2023-04-19T20:48:32;96542.72;;;4.37;60.33
79127;BME280;68528;48.814;8.904;2023-04-19T20:54:22;96548.28;;;4.15;61.55
79127;BME280;68528;48.814;8.904;2023-04-19T20:56:47;96540.97;;;3.98;62.02
79127;BME280;68528;48.814;8.904;2023-04-19T20:59:13;96546.72;;;3.88;62.76
79127;BME280;68528;48.814;8.904;2023-04-19T21:01:38;96550.97;;;3.72;63.25
79127;BME280;68528;48.814;8.904;2023-04-19T21:04:04;96554.78;;;3.62;64.33
79127;BME280;68528;48.814;8.904;2023-04-19T21:06:30;96551.25;;;3.53;64.58
79127;BME280;68528;48.814;8.904;2023-04-19T21:09:20;96555.22;;;3.39;65.19
79127;BME280;68528;48.814;8.904;2023-04-19T21:12:11;96547.97;;;3.17;66.50
79127;BME280;68528;48.814;8.904;2023-04-19T21:15:06;96548.41;;;3.10;67.75
79127;BME280;68528;48.814;8.904;2023-04-19T21:17:52;96535.66;;;3.02;68.34
79127;BME280;68528;48.814;8.904;2023-04-19T21:20:17;96535.13;;;2.92;69.72
79127;BME280;68528;48.814;8.904;2023-04-19T21:22:44;96527.91;;;2.70;71.10
79127;BME280;68528;48.814;8.904;2023-04-19T21:25:27;96530.56;;;2.62;70.95
79127;BME280;68528;48.814;8.904;2023-04-19T21:28:18;96540.31;;;2.41;73.70
79127;BME280;68528;48.814;8.904;2023-04-19T21:30:52;96534.63;;;2.28;73.45
79127;BME280;68528;48.814;8.904;2023-04-19T21:33:38;96529.53;;;2.27;73.63
79127;BME280;68528;48.814;8.904;2023-04-19T21:36:05;96531.75;;;2.25;73.97
79127;BME280;68528;48.814;8.904;2023-04-19T21:38:30;96518.38;;;2.20;74.66
79127;BME280;68528;48.814;8.904;2023-04-19T21:40:56;96529.66;;;2.22;72.31
79127;BME280;68528;48.814;8.904;2023-04-19T21:43:23;96524.25;;;2.22;71.52
79127;BME280;68528;48.814;8.904;2023-04-19T21:46:03;96511.81;;;2.12;72.22
79127;BME280;68528;48.814;8.904;2023-04-19T21:48:58;96521.22;;;2.15;72.05
79127;BME280;68528;48.814;8.904;2023-04-19T21:51:56;96525.50;;;2.16;71.89
79127;BME280;68528;48.814;8.904;2023-04-19T21:54:22;96518.31;;;2.11;72.57
79127;BME280;68528;48.814;8.904;2023-04-19T21:56:47;96509.38;;;2.02;72.35